Henshaw, Kentucky
Current Conditions -  °F | °C
As of 4:35 PM on Sunday 23 Nov 2014 (Local Time) from KEHR Reporting Station
Overcast Overcast  
Wind Chill: 55°   Ceiling: 1400
Heat Index: 55°   Visibility: 8mi
Dew Point: 54°   Wind: 9mph
Humidity: 94%   Direction: 130°SE
Pressure: 29.34"   Gusts: NA
Location:  37.6418°N, 87.8654°W
Report Text: KEHR 232235Z AUTO 13008KT 8SM SCT008 BKN014 OVC021 13/12 A2934 RMK AO1 P0016
Loading
Personal Weather Stations






























Interactive Weather Map New forecast layout! Learn more

10-Day Weather Forecast

Advertisements
Track Severe Weather on mobile